sensor_id;sensor_type;location;lat;lon;timestamp;P1;durP1;ratioP1;P2;durP2;ratioP2
52186;SDS011;38161;53.020;6.598;2023-06-22T00:01:27;76.78;;;71.72;;
52186;SDS011;38161;53.020;6.598;2023-06-22T00:03:53;74.53;;;69.65;;
52186;SDS011;38161;53.020;6.598;2023-06-22T00:06:19;77.95;;;72.82;;
52186;SDS011;38161;53.020;6.598;2023-06-22T00:08:45;79.95;;;74.88;;
52186;SDS011;38161;53.020;6.598;2023-06-22T00:11:11;76.57;;;71.43;;
52186;SDS011;38161;53.020;6.598;2023-06-22T00:13:37;73.18;;;68.32;;
52186;SDS011;38161;53.020;6.598;2023-06-22T00:16:03;73.05;;;68.07;;
52186;SDS011;38161;53.020;6.598;2023-06-22T00:18:29;75.90;;;70.65;;
52186;SDS011;38161;53.020;6.598;2023-06-22T00:20:55;82.30;;;76.65;;
52186;SDS011;38161;53.020;6.598;2023-06-22T00:23:24;72.53;;;67.53;;
52186;SDS011;38161;53.020;6.598;2023-06-22T00:28:16;59.08;;;54.83;;
52186;SDS011;38161;53.020;6.598;2023-06-22T00:30:42;63.03;;;58.70;;
52186;SDS011;38161;53.020;6.598;2023-06-22T00:33:08;67.78;;;63.10;;
52186;SDS011;38161;53.020;6.598;2023-06-22T00:35:35;68.30;;;63.33;;
52186;SDS011;38161;53.020;6.598;2023-06-22T00:38:01;71.70;;;67.00;;
52186;SDS011;38161;53.020;6.598;2023-06-22T00:40:29;72.63;;;67.75;;
52186;SDS011;38161;53.020;6.598;2023-06-22T00:42:56;67.85;;;63.13;;
52186;SDS011;38161;53.020;6.598;2023-06-22T00:45:23;62.30;;;58.35;;
52186;SDS011;38161;53.020;6.598;2023-06-22T00:47:50;58.00;;;54.15;;
52186;SDS011;38161;53.020;6.598;2023-06-22T00:50:18;59.40;;;55.88;;
52186;SDS011;38161;53.020;6.598;2023-06-22T00:52:53;55.78;;;52.13;;
52186;SDS011;38161;53.020;6.598;2023-06-22T00:57:51;51.95;;;48.85;;
52186;SDS011;38161;53.020;6.598;2023-06-22T01:00:21;52.30;;;48.90;;
52186;SDS011;38161;53.020;6.598;2023-06-22T01:02:50;56.85;;;53.10;;
52186;SDS011;38161;53.020;6.598;2023-06-22T01:05:17;55.22;;;51.65;;
52186;SDS011;38161;53.020;6.598;2023-06-22T01:16:10;66.13;;;61.72;;
52186;SDS011;38161;53.020;6.598;2023-06-22T01:18:42;57.03;;;53.15;;
52186;SDS011;38161;53.020;6.598;2023-06-22T01:21:09;61.55;;;57.40;;
52186;SDS011;38161;53.020;6.598;2023-06-22T01:23:48;60.38;;;56.33;;
52186;SDS011;38161;53.020;6.598;2023-06-22T01:26:38;56.17;;;52.42;;
52186;SDS011;38161;53.020;6.598;2023-06-22T01:29:19;52.78;;;48.83;;
52186;SDS011;38161;53.020;6.598;2023-06-22T01:31:46;63.10;;;59.08;;
52186;SDS011;38161;53.020;6.598;2023-06-22T01:34:14;70.78;;;66.30;;
52186;SDS011;38161;53.020;6.598;2023-06-22T01:36:41;66.53;;;62.10;;
52186;SDS011;38161;53.020;6.598;2023-06-22T01:39:08;60.25;;;56.38;;
52186;SDS011;38161;53.020;6.598;2023-06-22T01:41:36;64.78;;;60.35;;
52186;SDS011;38161;53.020;6.598;2023-06-22T01:44:06;62.15;;;57.95;;
52186;SDS011;38161;53.020;6.598;2023-06-22T01:46:36;66.53;;;62.38;;
52186;SDS011;38161;53.020;6.598;2023-06-22T01:49:03;71.95;;;67.60;;
52186;SDS011;38161;53.020;6.598;2023-06-22T01:51:30;74.35;;;69.80;;
52186;SDS011;38161;53.020;6.598;2023-06-22T01:53:56;72.25;;;67.78;;
52186;SDS011;38161;53.020;6.598;2023-06-22T01:56:22;71.82;;;67.32;;
52186;SDS011;38161;53.020;6.598;2023-06-22T02:01:57;74.32;;;69.60;;
52186;SDS011;38161;53.020;6.598;2023-06-22T02:04:28;70.05;;;65.60;;
52186;SDS011;38161;53.020;6.598;2023-06-22T02:07:05;63.78;;;59.42;;
52186;SDS011;38161;53.020;6.598;2023-06-22T02:09:36;78.93;;;74.10;;
52186;SDS011;38161;53.020;6.598;2023-06-22T02:12:05;67.38;;;63.03;;
52186;SDS011;38161;53.020;6.598;2023-06-22T02:14:33;68.00;;;63.75;;
52186;SDS011;38161;53.020;6.598;2023-06-22T02:17:01;72.53;;;68.10;;
52186;SDS011;38161;53.020;6.598;2023-06-22T02:19:27;71.80;;;67.47;;
52186;SDS011;38161;53.020;6.598;2023-06-22T02:21:58;66.97;;;62.72;;
52186;SDS011;38161;53.020;6.598;2023-06-22T02:24:24;74.30;;;69.47;;
52186;SDS011;38161;53.020;6.598;2023-06-22T02:26:50;71.35;;;66.88;;
52186;SDS011;38161;53.020;6.598;2023-06-22T02:29:16;68.78;;;64.50;;
52186;SDS011;38161;53.020;6.598;2023-06-22T02:31:42;65.88;;;61.88;;
52186;SDS011;38161;53.020;6.598;2023-06-22T02:34:08;59.15;;;55.35;;
52186;SDS011;38161;53.020;6.598;2023-06-22T02:36:34;55.47;;;52.00;;
52186;SDS011;38161;53.020;6.598;2023-06-22T02:39:00;56.28;;;52.80;;
52186;SDS011;38161;53.020;6.598;2023-06-22T02:41:27;56.53;;;52.88;;
52186;SDS011;38161;53.020;6.598;2023-06-22T02:43:53;65.13;;;61.15;;
52186;SDS011;38161;53.020;6.598;2023-06-22T02:46:19;69.30;;;65.22;;
52186;SDS011;38161;53.020;6.598;2023-06-22T02:48:44;68.25;;;64.22;;
52186;SDS011;38161;53.020;6.598;2023-06-22T02:51:10;59.50;;;55.88;;
52186;SDS011;38161;53.020;6.598;2023-06-22T02:53:36;60.25;;;56.60;;
52186;SDS011;38161;53.020;6.598;2023-06-22T02:56:02;59.97;;;56.55;;
52186;SDS011;38161;53.020;6.598;2023-06-22T02:58:30;59.70;;;56.25;;
52186;SDS011;38161;53.020;6.598;2023-06-22T03:01:04;59.10;;;55.55;;
52186;SDS011;38161;53.020;6.598;2023-06-22T03:03:31;59.88;;;56.33;;
52186;SDS011;38161;53.020;6.598;2023-06-22T03:05:57;65.38;;;61.55;;
52186;SDS011;38161;53.020;6.598;2023-06-22T03:08:23;82.15;;;77.35;;
52186;SDS011;38161;53.020;6.598;2023-06-22T03:10:49;84.28;;;79.30;;
52186;SDS011;38161;53.020;6.598;2023-06-22T03:13:15;64.25;;;60.03;;
52186;SDS011;38161;53.020;6.598;2023-06-22T03:15:42;74.30;;;69.55;;
52186;SDS011;38161;53.020;6.598;2023-06-22T03:18:07;93.15;;;87.10;;
52186;SDS011;38161;53.020;6.598;2023-06-22T03:20:33;81.53;;;76.20;;
52186;SDS011;38161;53.020;6.598;2023-06-22T03:22:59;88.68;;;82.72;;
52186;SDS011;38161;53.020;6.598;2023-06-22T03:25:25;92.20;;;86.10;;
52186;SDS011;38161;53.020;6.598;2023-06-22T03:27:51;56.80;;;52.53;;
52186;SDS011;38161;53.020;6.598;2023-06-22T03:30:17;59.55;;;54.35;;
52186;SDS011;38161;53.020;6.598;2023-06-22T03:32:43;65.95;;;61.30;;
52186;SDS011;38161;53.020;6.598;2023-06-22T03:35:09;61.17;;;56.78;;
52186;SDS011;38161;53.020;6.598;2023-06-22T03:37:38;65.07;;;60.30;;
52186;SDS011;38161;53.020;6.598;2023-06-22T03:40:04;62.63;;;58.40;;
52186;SDS011;38161;53.020;6.598;2023-06-22T03:42:30;66.18;;;61.80;;
52186;SDS011;38161;53.020;6.598;2023-06-22T03:44:56;66.43;;;60.20;;
52186;SDS011;38161;53.020;6.598;2023-06-22T03:47:22;66.35;;;61.92;;
52186;SDS011;38161;53.020;6.598;2023-06-22T03:49:48;64.55;;;60.13;;
52186;SDS011;38161;53.020;6.598;2023-06-22T03:52:14;64.25;;;59.67;;
52186;SDS011;38161;53.020;6.598;2023-06-22T03:54:40;61.88;;;57.50;;
52186;SDS011;38161;53.020;6.598;2023-06-22T03:57:06;74.25;;;69.18;;
52186;SDS011;38161;53.020;6.598;2023-06-22T03:59:32;77.30;;;66.00;;
52186;SDS011;38161;53.020;6.598;2023-06-22T04:01:58;75.28;;;70.05;;
52186;SDS011;38161;53.020;6.598;2023-06-22T04:04:24;76.82;;;71.47;;
52186;SDS011;38161;53.020;6.598;2023-06-22T04:06:50;75.18;;;69.68;;
52186;SDS011;38161;53.020;6.598;2023-06-22T04:09:19;80.78;;;75.13;;
52186;SDS011;38161;53.020;6.598;2023-06-22T04:11:46;73.70;;;68.57;;
52186;SDS011;38161;53.020;6.598;2023-06-22T04:14:12;69.63;;;64.75;;
52186;SDS011;38161;53.020;6.598;2023-06-22T04:16:38;77.57;;;71.63;;
52186;SDS011;38161;53.020;6.598;2023-06-22T04:19:04;73.90;;;67.88;;
52186;SDS011;38161;53.020;6.598;2023-06-22T04:21:31;79.85;;;73.68;;
52186;SDS011;38161;53.020;6.598;2023-06-22T04:24:00;90.32;;;78.85;;
52186;SDS011;38161;53.020;6.598;2023-06-22T04:26:26;86.45;;;79.45;;
52186;SDS011;38161;53.020;6.598;2023-06-22T04:28:51;83.90;;;77.85;;
52186;SDS011;38161;53.020;6.598;2023-06-22T04:31:21;77.43;;;72.10;;
52186;SDS011;38161;53.020;6.598;2023-06-22T04:33:47;83.68;;;77.43;;
52186;SDS011;38161;53.020;6.598;2023-06-22T04:36:13;79.00;;;72.45;;
52186;SDS011;38161;53.020;6.598;2023-06-22T04:38:39;80.63;;;74.95;;
52186;SDS011;38161;53.020;6.598;2023-06-22T04:41:05;75.68;;;70.30;;
52186;SDS011;38161;53.020;6.598;2023-06-22T04:45:58;69.22;;;63.60;;
52186;SDS011;38161;53.020;6.598;2023-06-22T04:48:29;71.72;;;66.60;;
52186;SDS011;38161;53.020;6.598;2023-06-22T04:50:58;82.32;;;74.15;;
52186;SDS011;38161;53.020;6.598;2023-06-22T04:53:28;85.00;;;79.18;;
52186;SDS011;38161;53.020;6.598;2023-06-22T04:58:21;73.10;;;67.53;;
52186;SDS011;38161;53.020;6.598;2023-06-22T05:00:47;79.95;;;74.28;;
52186;SDS011;38161;53.020;6.598;2023-06-22T05:03:13;83.82;;;77.90;;
52186;SDS011;38161;53.020;6.598;2023-06-22T05:05:43;93.20;;;86.45;;
52186;SDS011;38161;53.020;6.598;2023-06-22T05:08:09;95.13;;;88.65;;
52186;SDS011;38161;53.020;6.598;2023-06-22T05:10:35;96.88;;;89.80;;
52186;SDS011;38161;53.020;6.598;2023-06-22T05:13:01;96.35;;;89.65;;
52186;SDS011;38161;53.020;6.598;2023-06-22T05:15:27;104.97;;;97.38;;
52186;SDS011;38161;53.020;6.598;2023-06-22T05:17:55;113.00;;;104.85;;
52186;SDS011;38161;53.020;6.598;2023-06-22T05:20:21;120.90;;;112.25;;
52186;SDS011;38161;53.020;6.598;2023-06-22T05:22:47;124.97;;;115.50;;
52186;SDS011;38161;53.020;6.598;2023-06-22T05:25:13;120.53;;;111.22;;
52186;SDS011;38161;53.020;6.598;2023-06-22T05:27:39;126.45;;;116.82;;
52186;SDS011;38161;53.020;6.598;2023-06-22T05:30:08;119.18;;;109.97;;
52186;SDS011;38161;53.020;6.598;2023-06-22T05:32:35;129.25;;;119.30;;
52186;SDS011;38161;53.020;6.598;2023-06-22T05:35:02;134.63;;;124.05;;
52186;SDS011;38161;53.020;6.598;2023-06-22T05:37:28;141.68;;;130.55;;
52186;SDS011;38161;53.020;6.598;2023-06-22T05:39:55;137.07;;;126.00;;
52186;SDS011;38161;53.020;6.598;2023-06-22T05:42:22;144.48;;;133.10;;
52186;SDS011;38161;53.020;6.598;2023-06-22T05:44:48;142.85;;;131.77;;
52186;SDS011;38161;53.020;6.598;2023-06-22T05:47:14;152.38;;;140.57;;
52186;SDS011;38161;53.020;6.598;2023-06-22T05:52:06;126.38;;;116.50;;
52186;SDS011;38161;53.020;6.598;2023-06-22T05:54:32;156.05;;;142.82;;
52186;SDS011;38161;53.020;6.598;2023-06-22T05:56:58;151.40;;;138.82;;
52186;SDS011;38161;53.020;6.598;2023-06-22T05:59:24;174.68;;;160.40;;
52186;SDS011;38161;53.020;6.598;2023-06-22T06:01:49;166.00;;;152.32;;
52186;SDS011;38161;53.020;6.598;2023-06-22T06:04:16;178.93;;;163.95;;
52186;SDS011;38161;53.020;6.598;2023-06-22T06:06:43;172.90;;;159.10;;
52186;SDS011;38161;53.020;6.598;2023-06-22T06:09:09;178.52;;;164.13;;
52186;SDS011;38161;53.020;6.598;2023-06-22T06:11:37;183.43;;;168.23;;
52186;SDS011;38161;53.020;6.598;2023-06-22T06:14:03;182.55;;;168.68;;
52186;SDS011;38161;53.020;6.598;2023-06-22T06:16:29;177.82;;;164.65;;
52186;SDS011;38161;53.020;6.598;2023-06-22T06:18:55;175.23;;;161.68;;
52186;SDS011;38161;53.020;6.598;2023-06-22T06:21:21;186.07;;;169.30;;
52186;SDS011;38161;53.020;6.598;2023-06-22T06:23:47;177.55;;;162.95;;
52186;SDS011;38161;53.020;6.598;2023-06-22T06:26:13;195.27;;;177.10;;
52186;SDS011;38161;53.020;6.598;2023-06-22T06:28:41;177.32;;;164.35;;
52186;SDS011;38161;53.020;6.598;2023-06-22T06:31:08;198.32;;;181.60;;
52186;SDS011;38161;53.020;6.598;2023-06-22T06:33:35;188.60;;;171.57;;
52186;SDS011;38161;53.020;6.598;2023-06-22T06:36:01;196.00;;;181.32;;
52186;SDS011;38161;53.020;6.598;2023-06-22T06:38:29;202.48;;;186.40;;
52186;SDS011;38161;53.020;6.598;2023-06-22T06:40:56;208.93;;;191.18;;
52186;SDS011;38161;53.020;6.598;2023-06-22T06:45:48;140.85;;;131.07;;
52186;SDS011;38161;53.020;6.598;2023-06-22T06:48:14;159.50;;;147.32;;
52186;SDS011;38161;53.020;6.598;2023-06-22T06:50:40;169.88;;;156.63;;
52186;SDS011;38161;53.020;6.598;2023-06-22T06:53:09;162.27;;;150.25;;
52186;SDS011;38161;53.020;6.598;2023-06-22T06:55:35;160.77;;;149.63;;
52186;SDS011;38161;53.020;6.598;2023-06-22T06:58:01;178.05;;;164.60;;
52186;SDS011;38161;53.020;6.598;2023-06-22T07:00:29;175.82;;;161.93;;
52186;SDS011;38161;53.020;6.598;2023-06-22T07:02:55;141.57;;;132.40;;
52186;SDS011;38161;53.020;6.598;2023-06-22T07:05:20;159.85;;;149.65;;
52186;SDS011;38161;53.020;6.598;2023-06-22T07:07:46;162.68;;;151.32;;
52186;SDS011;38161;53.020;6.598;2023-06-22T07:10:15;147.23;;;137.45;;
52186;SDS011;38161;53.020;6.598;2023-06-22T07:12:41;134.93;;;125.60;;
52186;SDS011;38161;53.020;6.598;2023-06-22T07:15:08;134.65;;;125.60;;
52186;SDS011;38161;53.020;6.598;2023-06-22T07:17:35;143.55;;;134.10;;
52186;SDS011;38161;53.020;6.598;2023-06-22T07:20:02;163.50;;;152.65;;
52186;SDS011;38161;53.020;6.598;2023-06-22T07:22:33;129.82;;;121.47;;
52186;SDS011;38161;53.020;6.598;2023-06-22T07:24:59;139.73;;;130.77;;
52186;SDS011;38161;53.020;6.598;2023-06-22T07:27:26;165.88;;;154.40;;
52186;SDS011;38161;53.020;6.598;2023-06-22T07:29:52;141.88;;;132.95;;
52186;SDS011;38161;53.020;6.598;2023-06-22T07:32:18;147.07;;;137.63;;
52186;SDS011;38161;53.020;6.598;2023-06-22T07:34:45;137.30;;;128.50;;
52186;SDS011;38161;53.020;6.598;2023-06-22T07:37:11;145.43;;;135.70;;
52186;SDS011;38161;53.020;6.598;2023-06-22T07:39:37;135.13;;;126.40;;
52186;SDS011;38161;53.020;6.598;2023-06-22T07:42:03;163.45;;;153.02;;
52186;SDS011;38161;53.020;6.598;2023-06-22T07:46:55;119.75;;;112.50;;
52186;SDS011;38161;53.020;6.598;2023-06-22T07:49:20;186.70;;;148.43;;
52186;SDS011;38161;53.020;6.598;2023-06-22T07:51:46;141.00;;;132.48;;
52186;SDS011;38161;53.020;6.598;2023-06-22T07:54:12;123.50;;;116.15;;
52186;SDS011;38161;53.020;6.598;2023-06-22T07:56:40;145.98;;;136.00;;
52186;SDS011;38161;53.020;6.598;2023-06-22T07:59:06;145.68;;;135.90;;
52186;SDS011;38161;53.020;6.598;2023-06-22T08:01:32;134.88;;;126.53;;
52186;SDS011;38161;53.020;6.598;2023-06-22T08:03:58;140.40;;;131.98;;
52186;SDS011;38161;53.020;6.598;2023-06-22T08:06:24;132.95;;;124.60;;
52186;SDS011;38161;53.020;6.598;2023-06-22T08:08:50;159.95;;;149.32;;
52186;SDS011;38161;53.020;6.598;2023-06-22T08:11:17;151.48;;;141.35;;
52186;SDS011;38161;53.020;6.598;2023-06-22T08:13:43;139.77;;;128.20;;
52186;SDS011;38161;53.020;6.598;2023-06-22T08:16:09;137.25;;;129.02;;
52186;SDS011;38161;53.020;6.598;2023-06-22T08:21:02;116.40;;;105.30;;
52186;SDS011;38161;53.020;6.598;2023-06-22T08:23:28;131.30;;;122.65;;
52186;SDS011;38161;53.020;6.598;2023-06-22T08:25:54;156.40;;;146.35;;
52186;SDS011;38161;53.020;6.598;2023-06-22T08:28:20;166.15;;;154.18;;
52186;SDS011;38161;53.020;6.598;2023-06-22T08:30:46;148.60;;;139.40;;
52186;SDS011;38161;53.020;6.598;2023-06-22T08:33:14;121.72;;;113.25;;
52186;SDS011;38161;53.020;6.598;2023-06-22T08:35:40;126.95;;;118.82;;
52186;SDS011;38161;53.020;6.598;2023-06-22T08:38:07;143.57;;;134.18;;
52186;SDS011;38161;53.020;6.598;2023-06-22T08:40:33;160.73;;;150.43;;
52186;SDS011;38161;53.020;6.598;2023-06-22T08:42:59;146.73;;;136.57;;
52186;SDS011;38161;53.020;6.598;2023-06-22T08:45:25;147.65;;;134.52;;
52186;SDS011;38161;53.020;6.598;2023-06-22T08:47:51;147.10;;;138.05;;
52186;SDS011;38161;53.020;6.598;2023-06-22T08:50:17;149.80;;;139.60;;
52186;SDS011;38161;53.020;6.598;2023-06-22T08:52:43;141.73;;;132.25;;
52186;SDS011;38161;53.020;6.598;2023-06-22T08:55:09;152.18;;;139.60;;
52186;SDS011;38161;53.020;6.598;2023-06-22T08:57:35;165.20;;;153.15;;
52186;SDS011;38161;53.020;6.598;2023-06-22T09:00:07;164.23;;;152.48;;
52186;SDS011;38161;53.020;6.598;2023-06-22T09:02:45;174.07;;;160.20;;
52186;SDS011;38161;53.020;6.598;2023-06-22T09:05:12;147.55;;;138.30;;
52186;SDS011;38161;53.020;6.598;2023-06-22T09:07:39;164.05;;;149.35;;
52186;SDS011;38161;53.020;6.598;2023-06-22T09:10:05;168.60;;;156.15;;
52186;SDS011;38161;53.020;6.598;2023-06-22T09:12:32;171.93;;;159.68;;
52186;SDS011;38161;53.020;6.598;2023-06-22T09:15:05;199.80;;;185.82;;
52186;SDS011;38161;53.020;6.598;2023-06-22T09:17:32;147.45;;;136.55;;
52186;SDS011;38161;53.020;6.598;2023-06-22T09:19:59;175.43;;;162.23;;
52186;SDS011;38161;53.020;6.598;2023-06-22T09:22:24;203.00;;;186.63;;
52186;SDS011;38161;53.020;6.598;2023-06-22T09:24:54;145.35;;;134.82;;
52186;SDS011;38161;53.020;6.598;2023-06-22T09:27:21;196.00;;;181.07;;
52186;SDS011;38161;53.020;6.598;2023-06-22T09:29:47;200.77;;;174.15;;
52186;SDS011;38161;53.020;6.598;2023-06-22T09:32:14;196.70;;;182.48;;
52186;SDS011;38161;53.020;6.598;2023-06-22T09:34:40;192.02;;;177.48;;
52186;SDS011;38161;53.020;6.598;2023-06-22T09:37:06;202.50;;;187.60;;
52186;SDS011;38161;53.020;6.598;2023-06-22T09:39:32;153.90;;;137.63;;
52186;SDS011;38161;53.020;6.598;2023-06-22T09:41:59;254.55;;;172.73;;
52186;SDS011;38161;53.020;6.598;2023-06-22T09:44:25;168.98;;;152.52;;
52186;SDS011;38161;53.020;6.598;2023-06-22T09:49:17;138.73;;;129.13;;
52186;SDS011;38161;53.020;6.598;2023-06-22T09:51:45;188.98;;;175.52;;
52186;SDS011;38161;53.020;6.598;2023-06-22T09:54:11;228.25;;;206.63;;
52186;SDS011;38161;53.020;6.598;2023-06-22T09:56:37;147.30;;;131.75;;
52186;SDS011;38161;53.020;6.598;2023-06-22T10:01:29;149.63;;;139.10;;
52186;SDS011;38161;53.020;6.598;2023-06-22T10:03:55;139.18;;;126.47;;
52186;SDS011;38161;53.020;6.598;2023-06-22T10:06:21;212.63;;;160.55;;
52186;SDS011;38161;53.020;6.598;2023-06-22T10:08:51;203.07;;;177.10;;
52186;SDS011;38161;53.020;6.598;2023-06-22T10:11:17;190.98;;;176.57;;
52186;SDS011;38161;53.020;6.598;2023-06-22T10:13:43;187.88;;;171.80;;
52186;SDS011;38161;53.020;6.598;2023-06-22T10:18:35;145.02;;;134.63;;
52186;SDS011;38161;53.020;6.598;2023-06-22T10:21:01;160.32;;;148.02;;
52186;SDS011;38161;53.020;6.598;2023-06-22T10:23:27;173.63;;;158.35;;
52186;SDS011;38161;53.020;6.598;2023-06-22T10:25:53;155.25;;;143.63;;
52186;SDS011;38161;53.020;6.598;2023-06-22T10:30:44;176.57;;;164.27;;
52186;SDS011;38161;53.020;6.598;2023-06-22T10:35:36;123.90;;;114.25;;
52186;SDS011;38161;53.020;6.598;2023-06-22T10:38:03;142.80;;;130.68;;
52186;SDS011;38161;53.020;6.598;2023-06-22T10:40:29;180.77;;;164.27;;
52186;SDS011;38161;53.020;6.598;2023-06-22T10:45:21;146.48;;;135.18;;
52186;SDS011;38161;53.020;6.598;2023-06-22T10:50:12;141.32;;;130.18;;
52186;SDS011;38161;53.020;6.598;2023-06-22T10:55:06;132.63;;;118.85;;
52186;SDS011;38161;53.020;6.598;2023-06-22T10:57:33;143.05;;;131.52;;
52186;SDS011;38161;53.020;6.598;2023-06-22T11:02:25;121.32;;;111.55;;
52186;SDS011;38161;53.020;6.598;2023-06-22T11:04:53;132.98;;;123.63;;
52186;SDS011;38161;53.020;6.598;2023-06-22T11:07:19;115.47;;;105.55;;
52186;SDS011;38161;53.020;6.598;2023-06-22T11:12:11;115.95;;;109.20;;
52186;SDS011;38161;53.020;6.598;2023-06-22T11:17:03;135.00;;;109.75;;
52186;SDS011;38161;53.020;6.598;2023-06-22T11:19:30;215.65;;;152.38;;
52186;SDS011;38161;53.020;6.598;2023-06-22T11:24:22;111.53;;;103.60;;
52186;SDS011;38161;53.020;6.598;2023-06-22T11:29:13;113.68;;;106.68;;
52186;SDS011;38161;53.020;6.598;2023-06-22T11:34:08;119.78;;;110.88;;
52186;SDS011;38161;53.020;6.598;2023-06-22T11:36:34;127.05;;;117.47;;
52186;SDS011;38161;53.020;6.598;2023-06-22T11:39:00;114.25;;;107.28;;
52186;SDS011;38161;53.020;6.598;2023-06-22T11:41:27;121.65;;;107.95;;
52186;SDS011;38161;53.020;6.598;2023-06-22T11:46:18;109.18;;;101.40;;
52186;SDS011;38161;53.020;6.598;2023-06-22T11:51:10;107.57;;;101.03;;
52186;SDS011;38161;53.020;6.598;2023-06-22T11:56:02;103.97;;;97.15;;
52186;SDS011;38161;53.020;6.598;2023-06-22T11:58:28;121.97;;;114.25;;
52186;SDS011;38161;53.020;6.598;2023-06-22T12:03:20;101.80;;;94.22;;
52186;SDS011;38161;53.020;6.598;2023-06-22T12:05:49;121.72;;;113.68;;
52186;SDS011;38161;53.020;6.598;2023-06-22T12:08:17;127.18;;;117.53;;
52186;SDS011;38161;53.020;6.598;2023-06-22T12:10:43;122.78;;;111.35;;
52186;SDS011;38161;53.020;6.598;2023-06-22T12:15:36;156.98;;;127.07;;
52186;SDS011;38161;53.020;6.598;2023-06-22T12:18:01;78.80;;;73.63;;
52186;SDS011;38161;53.020;6.598;2023-06-22T12:20:28;84.45;;;78.55;;
52186;SDS011;38161;53.020;6.598;2023-06-22T12:22:55;97.20;;;87.10;;
52186;SDS011;38161;53.020;6.598;2023-06-22T12:25:23;114.75;;;103.97;;
52186;SDS011;38161;53.020;6.598;2023-06-22T12:27:49;80.63;;;75.80;;
52186;SDS011;38161;53.020;6.598;2023-06-22T12:32:41;81.57;;;76.90;;
52186;SDS011;38161;53.020;6.598;2023-06-22T12:37:39;89.95;;;84.93;;
52186;SDS011;38161;53.020;6.598;2023-06-22T12:40:08;95.43;;;89.78;;
52186;SDS011;38161;53.020;6.598;2023-06-22T12:42:34;121.97;;;113.20;;
52186;SDS011;38161;53.020;6.598;2023-06-22T12:47:26;82.97;;;77.85;;
52186;SDS011;38161;53.020;6.598;2023-06-22T12:49:52;101.63;;;95.75;;
52186;SDS011;38161;53.020;6.598;2023-06-22T12:54:44;65.95;;;61.97;;
52186;SDS011;38161;53.020;6.598;2023-06-22T12:59:35;75.80;;;71.30;;
52186;SDS011;38161;53.020;6.598;2023-06-22T13:02:01;90.88;;;85.50;;
52186;SDS011;38161;53.020;6.598;2023-06-22T13:04:28;75.97;;;71.13;;
52186;SDS011;38161;53.020;6.598;2023-06-22T13:09:19;75.13;;;70.57;;
52186;SDS011;38161;53.020;6.598;2023-06-22T13:11:45;87.63;;;82.00;;
52186;SDS011;38161;53.020;6.598;2023-06-22T13:16:37;92.32;;;86.97;;
52186;SDS011;38161;53.020;6.598;2023-06-22T13:21:29;91.97;;;85.95;;
52186;SDS011;38161;53.020;6.598;2023-06-22T13:23:55;95.40;;;86.50;;
52186;SDS011;38161;53.020;6.598;2023-06-22T13:28:47;89.45;;;84.35;;
52186;SDS011;38161;53.020;6.598;2023-06-22T13:33:39;92.40;;;85.95;;
52186;SDS011;38161;53.020;6.598;2023-06-22T13:36:06;90.47;;;83.05;;
52186;SDS011;38161;53.020;6.598;2023-06-22T13:38:32;97.88;;;91.90;;
52186;SDS011;38161;53.020;6.598;2023-06-22T13:41:04;104.15;;;97.20;;
52186;SDS011;38161;53.020;6.598;2023-06-22T13:43:30;101.13;;;95.03;;
52186;SDS011;38161;53.020;6.598;2023-06-22T13:45:57;120.13;;;111.78;;
52186;SDS011;38161;53.020;6.598;2023-06-22T13:50:51;72.55;;;66.32;;
52186;SDS011;38161;53.020;6.598;2023-06-22T13:53:20;90.90;;;85.35;;
52186;SDS011;38161;53.020;6.598;2023-06-22T13:58:12;77.78;;;73.22;;
52186;SDS011;38161;53.020;6.598;2023-06-22T14:03:04;69.75;;;64.97;;
52186;SDS011;38161;53.020;6.598;2023-06-22T14:07:55;77.55;;;72.70;;
52186;SDS011;38161;53.020;6.598;2023-06-22T14:10:22;82.80;;;74.78;;
52186;SDS011;38161;53.020;6.598;2023-06-22T14:15:14;77.22;;;72.50;;
52186;SDS011;38161;53.020;6.598;2023-06-22T14:20:05;83.38;;;78.47;;
52186;SDS011;38161;53.020;6.598;2023-06-22T14:22:33;94.63;;;88.82;;
52186;SDS011;38161;53.020;6.598;2023-06-22T14:25:00;118.15;;;109.35;;
52186;SDS011;38161;53.020;6.598;2023-06-22T14:27:29;88.57;;;80.45;;
52186;SDS011;38161;53.020;6.598;2023-06-22T14:29:55;75.15;;;70.22;;
52186;SDS011;38161;53.020;6.598;2023-06-22T14:34:47;88.57;;;83.05;;
52186;SDS011;38161;53.020;6.598;2023-06-22T14:37:15;91.47;;;85.95;;
52186;SDS011;38161;53.020;6.598;2023-06-22T14:42:06;71.38;;;67.38;;
52186;SDS011;38161;53.020;6.598;2023-06-22T14:44:33;89.00;;;83.47;;
52186;SDS011;38161;53.020;6.598;2023-06-22T14:47:00;88.93;;;83.78;;
52186;SDS011;38161;53.020;6.598;2023-06-22T14:51:51;65.32;;;61.53;;
52186;SDS011;38161;53.020;6.598;2023-06-22T14:56:43;66.65;;;62.65;;
52186;SDS011;38161;53.020;6.598;2023-06-22T15:01:34;64.07;;;60.45;;
52186;SDS011;38161;53.020;6.598;2023-06-22T15:06:26;53.03;;;49.47;;
52186;SDS011;38161;53.020;6.598;2023-06-22T15:11:18;58.90;;;55.00;;
52186;SDS011;38161;53.020;6.598;2023-06-22T15:13:44;62.35;;;58.20;;
52186;SDS011;38161;53.020;6.598;2023-06-22T15:18:35;56.15;;;53.13;;
52186;SDS011;38161;53.020;6.598;2023-06-22T15:21:02;66.05;;;61.97;;
52186;SDS011;38161;53.020;6.598;2023-06-22T15:23:29;72.22;;;67.90;;
52186;SDS011;38161;53.020;6.598;2023-06-22T15:25:55;76.05;;;71.65;;
52186;SDS011;38161;53.020;6.598;2023-06-22T15:28:21;74.40;;;69.35;;
52186;SDS011;38161;53.020;6.598;2023-06-22T15:33:14;60.47;;;57.00;;
52186;SDS011;38161;53.020;6.598;2023-06-22T15:35:40;82.15;;;77.28;;
52186;SDS011;38161;53.020;6.598;2023-06-22T15:40:31;63.72;;;60.15;;
52186;SDS011;38161;53.020;6.598;2023-06-22T15:45:24;60.53;;;57.05;;
52186;SDS011;38161;53.020;6.598;2023-06-22T15:47:51;69.20;;;65.47;;
52186;SDS011;38161;53.020;6.598;2023-06-22T15:50:17;76.70;;;72.35;;
52186;SDS011;38161;53.020;6.598;2023-06-22T15:55:15;68.53;;;64.53;;
52186;SDS011;38161;53.020;6.598;2023-06-22T15:57:44;85.07;;;80.25;;
52186;SDS011;38161;53.020;6.598;2023-06-22T16:00:18;74.88;;;70.45;;
52186;SDS011;38161;53.020;6.598;2023-06-22T16:02:46;79.63;;;75.28;;
52186;SDS011;38161;53.020;6.598;2023-06-22T16:05:12;86.43;;;81.78;;
52186;SDS011;38161;53.020;6.598;2023-06-22T16:07:39;79.40;;;74.95;;
52186;SDS011;38161;53.020;6.598;2023-06-22T16:15:33;60.60;;;57.33;;
52186;SDS011;38161;53.020;6.598;2023-06-22T16:18:06;73.45;;;69.35;;
52186;SDS011;38161;53.020;6.598;2023-06-22T16:20:32;95.00;;;89.80;;
52186;SDS011;38161;53.020;6.598;2023-06-22T16:23:01;83.78;;;79.05;;
52186;SDS011;38161;53.020;6.598;2023-06-22T16:26:12;72.15;;;68.22;;
52186;SDS011;38161;53.020;6.598;2023-06-22T16:28:42;75.90;;;71.88;;
52186;SDS011;38161;53.020;6.598;2023-06-22T16:31:19;80.22;;;75.57;;
52186;SDS011;38161;53.020;6.598;2023-06-22T16:33:50;67.95;;;64.25;;
52186;SDS011;38161;53.020;6.598;2023-06-22T16:38:43;57.90;;;54.75;;
52186;SDS011;38161;53.020;6.598;2023-06-22T16:41:13;71.75;;;68.00;;
52186;SDS011;38161;53.020;6.598;2023-06-22T16:43:51;72.13;;;68.32;;